createdAt,value
2022-10-22T00:00:58.306Z,61.23
2022-10-22T00:02:59.966Z,61.53
2022-10-22T00:05:01.604Z,61.21
2022-10-22T00:07:03.364Z,61.57
2022-10-22T00:09:05.492Z,61.36
2022-10-22T00:11:13.074Z,61.46
2022-10-22T00:13:14.810Z,61.44
2022-10-22T00:15:16.252Z,61.47
2022-10-22T00:17:17.872Z,61.30
2022-10-22T00:19:19.583Z,61.62
2022-10-22T00:21:21.317Z,61.34
2022-10-22T00:23:25.599Z,61.29
2022-10-22T00:25:27.214Z,61.19
2022-10-22T00:27:28.780Z,61.41
2022-10-22T00:29:30.593Z,61.43
2022-10-22T00:31:32.149Z,61.53
2022-10-22T00:33:34.317Z,61.66
2022-10-22T00:35:36.137Z,61.54
2022-10-22T00:37:37.887Z,61.17
2022-10-22T00:39:39.647Z,61.36
2022-10-22T00:41:41.092Z,61.37
2022-10-22T00:44:04.620Z,61.43
2022-10-22T00:46:06.226Z,61.28
2022-10-22T00:48:13.204Z,61.30
2022-10-22T00:50:22.875Z,61.46
2022-10-22T00:52:25.093Z,61.45
2022-10-22T00:54:26.601Z,61.32
2022-10-22T00:56:28.409Z,61.39
2022-10-22T00:58:35.313Z,61.23
2022-10-22T01:00:36.995Z,61.43
2022-10-22T01:02:38.793Z,61.52
2022-10-22T01:04:41.143Z,61.42
2022-10-22T01:06:42.698Z,61.22
2022-10-22T01:08:53.396Z,61.69
2022-10-22T01:11:21.374Z,61.53
2022-10-22T01:13:37.042Z,61.33
2022-10-22T01:15:58.894Z,61.33
2022-10-22T01:18:08.275Z,61.43
2022-10-22T01:20:21.921Z,61.66
2022-10-22T01:22:31.041Z,61.76
2022-10-22T01:24:59.887Z,61.67
2022-10-22T01:27:26.669Z,61.39
2022-10-22T01:29:39.269Z,61.37
2022-10-22T01:31:49.108Z,61.39
2022-10-22T01:33:53.388Z,61.43
2022-10-22T01:35:55.211Z,61.92
2022-10-22T01:38:00.601Z,61.63
2022-10-22T01:40:02.881Z,61.58
2022-10-22T01:42:07.223Z,61.40
2022-10-22T01:44:25.528Z,61.60
2022-10-22T01:46:28.444Z,61.63
2022-10-22T01:48:48.541Z,61.38
2022-10-22T01:51:02.112Z,61.38
2022-10-22T01:53:21.489Z,61.44
2022-10-22T01:55:35.297Z,61.75
2022-10-22T01:58:03.990Z,61.67
2022-10-22T02:00:09.983Z,61.44
2022-10-22T02:02:34.745Z,61.66
2022-10-22T02:04:48.667Z,61.32
2022-10-22T02:06:52.976Z,61.48
2022-10-22T02:08:55.699Z,61.17
2022-10-22T02:10:59.849Z,61.24
2022-10-22T02:13:03.219Z,61.53
2022-10-22T02:15:05.829Z,61.34
2022-10-22T02:17:12.081Z,61.32
2022-10-22T02:19:23.305Z,61.26
2022-10-22T02:21:25.125Z,61.26
2022-10-22T02:23:27.243Z,61.48
2022-10-22T02:25:35.780Z,61.50
2022-10-22T02:27:43.450Z,61.43
2022-10-22T02:30:00.680Z,61.68
2022-10-22T02:32:05.815Z,61.61
2022-10-22T02:34:11.306Z,61.57
2022-10-22T02:36:14.832Z,61.41
2022-10-22T02:38:17.307Z,61.36
2022-10-22T02:40:20.016Z,61.61
2022-10-22T02:42:24.303Z,61.44
2022-10-22T02:44:25.935Z,61.69
2022-10-22T02:46:27.898Z,61.54
2022-10-22T02:48:29.436Z,61.50
2022-10-22T02:50:31.315Z,61.71
2022-10-22T02:52:33.046Z,61.79
2022-10-22T02:54:34.662Z,61.65
2022-10-22T02:56:36.361Z,61.30
2022-10-22T02:58:37.934Z,61.56
2022-10-22T03:00:40.179Z,61.42
2022-10-22T03:02:41.812Z,61.53
2022-10-22T03:04:43.547Z,61.33
2022-10-22T03:06:45.221Z,61.03
2022-10-22T03:08:46.865Z,61.40
2022-10-22T03:10:48.621Z,61.16
2022-10-22T03:12:50.249Z,61.23
2022-10-22T03:14:52.004Z,61.28
2022-10-22T03:16:53.599Z,61.10
2022-10-22T03:18:55.302Z,61.07
2022-10-22T03:21:10.843Z,61.17
2022-10-22T03:23:14.935Z,61.16
2022-10-22T03:25:22.679Z,61.17
2022-10-22T03:27:25.340Z,61.22
2022-10-22T03:29:28.097Z,61.03
2022-10-22T03:31:29.930Z,61.15
2022-10-22T03:33:31.403Z,61.08
2022-10-22T03:35:36.578Z,61.25
2022-10-22T03:37:39.620Z,61.13
2022-10-22T03:39:41.908Z,61.27
2022-10-22T03:41:44.341Z,61.05
2022-10-22T03:43:50.083Z,61.17
2022-10-22T03:45:51.797Z,60.94
2022-10-22T03:47:53.435Z,60.98
2022-10-22T03:49:55.150Z,61.29
2022-10-22T03:51:57.187Z,60.99
2022-10-22T03:53:58.960Z,61.31
2022-10-22T03:56:00.506Z,61.14
2022-10-22T03:58:02.624Z,61.04
2022-10-22T04:00:06.304Z,61.14
2022-10-22T04:02:08.722Z,61.15
2022-10-22T04:04:10.206Z,60.83
2022-10-22T04:06:13.826Z,61.05
2022-10-22T04:08:15.415Z,60.96
2022-10-22T04:10:17.221Z,61.04
2022-10-22T04:12:18.843Z,61.05
2022-10-22T04:14:23.475Z,61.11
2022-10-22T04:16:27.480Z,60.99
2022-10-22T04:18:31.683Z,61.14
2022-10-22T04:20:33.416Z,60.93
2022-10-22T04:22:35.806Z,61.00
2022-10-22T04:24:38.071Z,61.26
2022-10-22T04:26:39.812Z,61.12
2022-10-22T04:28:41.777Z,61.23
2022-10-22T04:30:43.500Z,60.92
2022-10-22T04:32:45.019Z,60.97
2022-10-22T04:34:50.354Z,61.06
2022-10-22T04:36:51.974Z,61.15
2022-10-22T04:39:01.218Z,60.95
2022-10-22T04:41:36.702Z,61.12
2022-10-22T04:43:38.647Z,61.16
2022-10-22T04:45:40.263Z,61.17
2022-10-22T04:47:42.113Z,61.10
2022-10-22T04:49:43.916Z,60.91
2022-10-22T04:51:45.650Z,61.14
2022-10-22T04:53:48.007Z,61.04
2022-10-22T04:55:49.640Z,61.01
2022-10-22T04:57:51.139Z,61.24
2022-10-22T04:59:52.733Z,60.89
2022-10-22T05:01:54.440Z,61.05
2022-10-22T05:03:58.514Z,61.05
2022-10-22T05:06:05.459Z,61.15
2022-10-22T05:08:07.014Z,61.23
2022-10-22T05:10:09.219Z,60.94
2022-10-22T05:12:10.978Z,60.94
2022-10-22T05:14:13.009Z,61.07
2022-10-22T05:16:15.175Z,60.90
2022-10-22T05:18:19.078Z,61.19
2022-10-22T05:20:24.224Z,60.97
2022-10-22T05:22:25.932Z,60.99
2022-10-22T05:24:29.164Z,60.98
2022-10-22T05:26:30.888Z,60.92
2022-10-22T05:28:33.716Z,61.06
2022-10-22T05:30:35.432Z,60.88
2022-10-22T05:32:36.892Z,60.87
2022-10-22T05:34:38.379Z,60.95
2022-10-22T05:36:40.337Z,60.78
2022-10-22T05:38:41.986Z,60.99
2022-10-22T05:40:43.941Z,61.12
2022-10-22T05:42:45.424Z,60.93
2022-10-22T05:44:48.362Z,60.77
2022-10-22T05:46:50.033Z,60.86
2022-10-22T05:48:53.143Z,60.85
2022-10-22T05:50:55.025Z,61.02
2022-10-22T05:52:56.797Z,60.87
2022-10-22T05:54:58.433Z,60.83
2022-10-22T05:57:00.127Z,60.80
2022-10-22T06:01:13.716Z,60.79
2022-10-22T06:03:15.287Z,60.83
2022-10-22T06:05:17.101Z,60.91
2022-10-22T06:07:18.794Z,60.85
2022-10-22T06:09:26.607Z,61.03
2022-10-22T06:11:31.085Z,61.00
2022-10-22T06:13:35.995Z,60.92
2022-10-22T06:15:37.760Z,61.04
2022-10-22T06:17:39.799Z,60.96
2022-10-22T06:19:42.533Z,60.96
2022-10-22T06:21:44.473Z,60.83
2022-10-22T06:23:46.118Z,60.94
2022-10-22T06:25:58.378Z,60.95
2022-10-22T06:28:00.048Z,60.95
2022-10-22T06:30:01.638Z,60.95
2022-10-22T06:32:03.368Z,60.98
2022-10-22T06:34:06.934Z,61.00
2022-10-22T06:36:10.362Z,61.03
2022-10-22T06:38:11.995Z,61.17
2022-10-22T06:40:13.883Z,61.23
2022-10-22T06:42:15.556Z,61.23
2022-10-22T06:44:21.346Z,61.03
2022-10-22T06:46:29.178Z,61.23
2022-10-22T06:48:33.091Z,61.33
2022-10-22T06:50:35.357Z,61.22
2022-10-22T06:52:37.003Z,61.27
2022-10-22T06:54:38.596Z,61.40
2022-10-22T06:56:40.790Z,61.29
2022-10-22T06:58:42.545Z,61.31
2022-10-22T07:00:45.298Z,61.23
2022-10-22T07:02:56.427Z,61.42
2022-10-22T07:05:04.016Z,61.35
2022-10-22T07:07:05.871Z,61.44
2022-10-22T07:09:08.010Z,61.34
2022-10-22T07:11:13.026Z,61.43
2022-10-22T07:13:14.743Z,61.50
2022-10-22T07:15:16.339Z,61.58
2022-10-22T07:17:18.109Z,61.59
2022-10-22T07:19:19.777Z,61.71
2022-10-22T07:21:22.702Z,61.54
2022-10-22T07:23:24.317Z,61.44
2022-10-22T07:25:26.254Z,61.70
2022-10-22T07:27:27.802Z,61.62
2022-10-22T07:29:32.663Z,61.66
2022-10-22T07:31:34.222Z,61.66
2022-10-22T07:33:37.155Z,61.81
2022-10-22T07:35:40.276Z,61.69
2022-10-22T07:37:45.849Z,61.71
2022-10-22T07:39:52.325Z,61.92
2022-10-22T07:41:53.962Z,62.01
2022-10-22T07:43:56.456Z,61.98
2022-10-22T07:46:02.325Z,62.10
2022-10-22T07:48:06.807Z,61.95
2022-10-22T07:50:08.696Z,62.04
2022-10-22T07:52:10.531Z,62.26
2022-10-22T07:54:12.021Z,62.13
2022-10-22T07:56:15.062Z,62.05
2022-10-22T07:58:20.887Z,62.04
2022-10-22T08:00:25.184Z,62.11
2022-10-22T08:02:27.161Z,61.99
2022-10-22T08:04:28.718Z,61.89
2022-10-22T08:06:30.457Z,62.08
2022-10-22T08:08:32.359Z,62.06
2022-10-22T08:10:34.939Z,62.29
2022-10-22T08:12:40.274Z,62.08
2022-10-22T08:14:50.966Z,62.09
2022-10-22T08:16:55.879Z,62.24
2022-10-22T08:18:57.677Z,62.39
2022-10-22T08:20:59.434Z,62.49
2022-10-22T08:23:01.576Z,62.63
2022-10-22T08:25:04.559Z,62.60
2022-10-22T08:27:06.086Z,62.64
2022-10-22T08:29:08.046Z,62.25
2022-10-22T08:31:14.863Z,62.54
2022-10-22T08:33:16.858Z,62.35
2022-10-22T08:35:21.228Z,62.07
2022-10-22T08:37:22.987Z,62.18
2022-10-22T08:39:24.721Z,61.94
2022-10-22T08:41:26.554Z,61.81
2022-10-22T08:43:52.959Z,61.85
2022-10-22T08:46:10.514Z,61.98
2022-10-22T08:48:30.782Z,62.02
2022-10-22T08:50:35.072Z,61.82
2022-10-22T08:52:40.798Z,62.05
2022-10-22T08:54:59.028Z,61.86
2022-10-22T08:57:23.627Z,62.03
2022-10-22T09:00:04.908Z,62.32
2022-10-22T09:02:30.296Z,62.36
2022-10-22T09:05:05.915Z,62.04
2022-10-22T09:07:13.621Z,62.21
2022-10-22T09:09:17.488Z,62.49
2022-10-22T09:11:25.676Z,62.55
2022-10-22T09:13:27.491Z,62.34
2022-10-22T09:15:31.312Z,62.43
2022-10-22T09:17:41.122Z,62.53
2022-10-22T09:20:04.553Z,62.44
2022-10-22T09:22:27.535Z,62.65
2022-10-22T09:24:42.147Z,62.39
2022-10-22T09:26:43.945Z,62.28
2022-10-22T09:28:50.937Z,63.27
2022-10-22T09:30:52.925Z,63.17
2022-10-22T09:33:01.391Z,63.79
2022-10-22T09:35:03.137Z,63.56
2022-10-22T09:37:09.000Z,64.13
2022-10-22T09:39:28.770Z,63.94
2022-10-22T09:41:30.754Z,63.38
2022-10-22T09:43:33.532Z,63.13
2022-10-22T09:45:35.146Z,62.46
2022-10-22T09:48:00.562Z,61.92
2022-10-22T09:50:37.779Z,62.13
2022-10-22T09:52:40.452Z,62.16
2022-10-22T09:54:44.436Z,62.76
2022-10-22T09:56:57.498Z,63.33
2022-10-22T09:58:59.180Z,63.29
2022-10-22T10:01:02.636Z,63.20
2022-10-22T10:03:04.356Z,63.12
2022-10-22T10:05:08.254Z,62.67
2022-10-22T10:07:22.952Z,62.59
2022-10-22T10:09:27.065Z,61.72
2022-10-22T10:11:45.627Z,59.83
2022-10-22T10:13:51.566Z,58.29
2022-10-22T10:16:08.009Z,56.85
2022-10-22T10:18:35.229Z,56.19
2022-10-22T10:20:46.239Z,56.36
2022-10-22T10:23:18.698Z,56.72
2022-10-22T10:25:46.486Z,56.41
2022-10-22T10:27:52.244Z,55.95
2022-10-22T10:30:20.784Z,55.59
2022-10-22T10:32:59.845Z,55.37
2022-10-22T10:35:06.527Z,56.43
2022-10-22T10:37:22.380Z,55.11
2022-10-22T10:39:32.805Z,54.26
2022-10-22T10:41:58.037Z,52.42
2022-10-22T10:44:37.156Z,52.87
2022-10-22T10:47:16.558Z,52.26
2022-10-22T10:49:26.816Z,52.52
2022-10-22T10:51:39.456Z,52.57
2022-10-22T10:53:55.587Z,52.21
2022-10-22T10:56:07.887Z,51.57
2022-10-22T10:58:34.494Z,51.40
2022-10-22T11:00:43.319Z,51.65
2022-10-22T11:03:09.663Z,51.79
2022-10-22T11:05:16.494Z,51.63
2022-10-22T11:07:34.251Z,52.09
2022-10-22T11:09:43.125Z,51.53
2022-10-22T11:11:53.892Z,51.67
2022-10-22T11:13:55.495Z,51.78
2022-10-22T11:16:19.116Z,51.34
2022-10-22T11:18:28.995Z,51.73
2022-10-22T11:20:38.678Z,51.64
2022-10-22T11:23:13.599Z,51.89
2022-10-22T11:25:13.294Z,51.76
2022-10-22T11:27:33.799Z,51.23
2022-10-22T11:29:41.823Z,51.57
2022-10-22T11:31:49.548Z,51.76
2022-10-22T11:34:33.328Z,51.88
2022-10-22T11:36:37.092Z,52.67
2022-10-22T11:38:38.850Z,52.31
2022-10-22T11:40:48.584Z,52.18
2022-10-22T11:43:08.661Z,52.00
2022-10-22T11:45:15.650Z,52.01
2022-10-22T11:47:24.159Z,51.77
2022-10-22T11:49:43.046Z,52.06
2022-10-22T11:51:47.067Z,51.84
2022-10-22T11:53:57.128Z,52.01
2022-10-22T11:56:06.597Z,51.73
2022-10-22T11:58:30.700Z,51.67
2022-10-22T12:00:39.627Z,52.30
2022-10-22T12:02:43.096Z,51.73
2022-10-22T12:04:44.952Z,52.14
2022-10-22T12:07:01.197Z,51.81
2022-10-22T12:09:06.972Z,51.98
2022-10-22T12:11:11.573Z,52.17
2022-10-22T12:13:22.304Z,52.09
2022-10-22T12:15:27.180Z,51.92
2022-10-22T12:17:32.676Z,52.00
2022-10-22T12:19:43.557Z,52.10
2022-10-22T12:21:51.873Z,52.36
2022-10-22T12:23:53.856Z,52.38
2022-10-22T12:25:55.569Z,52.20
2022-10-22T12:27:59.624Z,51.78
2022-10-22T12:30:03.360Z,51.77
2022-10-22T12:32:06.357Z,51.68
2022-10-22T12:34:14.345Z,51.18
2022-10-22T12:36:17.978Z,51.19
2022-10-22T12:38:25.434Z,50.93
2022-10-22T12:40:34.815Z,50.18
2022-10-22T12:42:38.281Z,50.18
2022-10-22T12:44:40.408Z,49.98
2022-10-22T12:46:44.328Z,49.27
2022-10-22T12:48:46.262Z,48.43
2022-10-22T12:50:56.283Z,48.48
2022-10-22T12:52:58.851Z,48.29
2022-10-22T12:55:00.643Z,48.20
2022-10-22T12:57:02.949Z,48.21
2022-10-22T12:59:20.773Z,48.60
2022-10-22T13:01:27.099Z,48.86
2022-10-22T13:03:30.703Z,49.22
2022-10-22T13:05:39.077Z,49.33
2022-10-22T13:07:52.090Z,48.58
2022-10-22T13:09:59.608Z,48.85
2022-10-22T13:12:06.792Z,48.54
2022-10-22T13:14:31.950Z,48.04
2022-10-22T13:16:33.797Z,48.60
2022-10-22T13:18:35.292Z,47.90
2022-10-22T13:20:37.569Z,48.33
2022-10-22T13:22:41.172Z,47.93
2022-10-22T13:24:50.096Z,47.58
2022-10-22T13:26:54.353Z,48.15
2022-10-22T13:28:57.937Z,48.36
2022-10-22T13:31:01.298Z,47.98
2022-10-22T13:33:17.835Z,48.15
2022-10-22T13:35:23.971Z,47.84
2022-10-22T13:37:26.453Z,48.14
2022-10-22T13:39:28.084Z,47.67
2022-10-22T13:41:32.387Z,47.95
2022-10-22T13:43:34.054Z,47.39
2022-10-22T13:45:35.845Z,47.22
2022-10-22T13:47:37.695Z,47.35
2022-10-22T13:49:43.263Z,47.25
2022-10-22T13:51:45.416Z,47.66
2022-10-22T13:53:48.595Z,47.33
2022-10-22T13:55:50.462Z,47.56
2022-10-22T13:58:03.891Z,46.85
2022-10-22T14:00:06.200Z,47.35
2022-10-22T14:02:14.424Z,47.17
2022-10-22T14:04:16.090Z,47.23
2022-10-22T14:06:19.545Z,47.40
2022-10-22T14:08:25.329Z,46.89
2022-10-22T14:10:27.900Z,46.36
2022-10-22T14:12:29.626Z,46.84
2022-10-22T14:14:31.623Z,46.41
2022-10-22T14:16:34.459Z,46.60
2022-10-22T14:18:36.828Z,46.74
2022-10-22T14:20:41.061Z,47.09
2022-10-22T14:22:42.732Z,46.56
2022-10-22T14:24:46.181Z,46.76
2022-10-22T14:26:48.066Z,46.88
2022-10-22T14:29:08.638Z,46.99
2022-10-22T14:31:11.658Z,46.48
2022-10-22T14:33:20.866Z,46.92
2022-10-22T14:35:22.948Z,46.65
2022-10-22T14:37:27.119Z,46.61
2022-10-22T14:39:28.841Z,46.62
2022-10-22T14:41:30.965Z,46.70
2022-10-22T14:43:32.733Z,46.54
2022-10-22T14:45:34.406Z,46.81
2022-10-22T14:47:36.241Z,46.43
2022-10-22T14:49:40.723Z,46.85
2022-10-22T14:51:42.432Z,46.58
2022-10-22T14:53:44.751Z,47.05
2022-10-22T14:55:47.498Z,46.76
2022-10-22T14:57:49.501Z,46.55
2022-10-22T14:59:54.777Z,46.63
2022-10-22T15:01:56.916Z,46.77
2022-10-22T15:04:01.287Z,47.07
2022-10-22T15:06:03.697Z,46.91
2022-10-22T15:08:05.610Z,46.58
2022-10-22T15:10:08.527Z,46.89
2022-10-22T15:12:10.219Z,46.92
2022-10-22T15:14:12.270Z,46.64
2022-10-22T15:16:16.406Z,46.36
2022-10-22T15:18:20.898Z,46.81
2022-10-22T15:20:22.660Z,46.52
2022-10-22T15:22:24.402Z,46.18
2022-10-22T15:24:26.234Z,46.41
2022-10-22T15:26:29.074Z,46.51
2022-10-22T15:28:33.773Z,46.77
2022-10-22T15:30:41.507Z,46.86
2022-10-22T15:32:43.219Z,46.60
2022-10-22T15:34:45.148Z,46.94
2022-10-22T15:36:48.023Z,46.87
2022-10-22T15:38:52.215Z,46.82
2022-10-22T15:41:08.101Z,46.88
2022-10-22T15:43:09.883Z,46.97
2022-10-22T15:45:11.611Z,46.93
2022-10-22T15:47:13.308Z,47.27
2022-10-22T15:49:15.089Z,47.50
2022-10-22T15:51:18.806Z,47.25
2022-10-22T15:53:20.348Z,47.28
2022-10-22T15:55:21.935Z,47.41
2022-10-22T15:57:23.582Z,47.48
2022-10-22T15:59:25.531Z,47.52
2022-10-22T16:01:27.386Z,47.58
2022-10-22T16:03:29.043Z,47.79
2022-10-22T16:05:31.084Z,48.17
2022-10-22T16:07:33.047Z,48.05
2022-10-22T16:09:34.707Z,48.24
2022-10-22T16:11:36.950Z,48.31
2022-10-22T16:13:38.835Z,48.38
2022-10-22T16:15:40.673Z,48.42
2022-10-22T16:17:42.237Z,48.66
2022-10-22T16:19:44.310Z,48.87
2022-10-22T16:21:50.079Z,48.94
2022-10-22T16:23:52.032Z,49.04
2022-10-22T16:25:54.343Z,49.14
2022-10-22T16:27:55.969Z,49.05
2022-10-22T16:29:57.593Z,49.13
2022-10-22T16:32:01.781Z,49.25
2022-10-22T16:34:03.553Z,49.27
2022-10-22T16:36:10.081Z,49.32
2022-10-22T16:38:12.344Z,49.34
2022-10-22T16:40:13.918Z,49.54
2022-10-22T16:42:15.600Z,49.57
2022-10-22T16:44:17.191Z,49.53
2022-10-22T16:46:20.674Z,49.51
2022-10-22T16:48:22.267Z,49.53
2022-10-22T16:50:26.629Z,49.64
2022-10-22T16:52:30.948Z,49.66
2022-10-22T16:54:33.703Z,49.72
2022-10-22T16:56:36.610Z,49.94
2022-10-22T16:58:39.128Z,49.70
2022-10-22T17:00:41.140Z,49.82
2022-10-22T17:02:43.098Z,49.93
2022-10-22T17:04:45.289Z,49.58
2022-10-22T17:06:47.181Z,49.98
2022-10-22T17:08:51.705Z,50.08
2022-10-22T17:10:53.437Z,50.22
2022-10-22T17:12:55.019Z,50.16
2022-10-22T17:14:56.674Z,50.27
2022-10-22T17:17:00.731Z,50.23
2022-10-22T17:19:04.279Z,50.40
2022-10-22T17:21:07.756Z,50.39
2022-10-22T17:23:09.642Z,50.46
2022-10-22T17:25:13.186Z,50.30
2022-10-22T17:27:15.042Z,50.47
2022-10-22T17:29:20.746Z,50.40
2022-10-22T17:31:23.802Z,50.31
2022-10-22T17:33:25.510Z,50.30
2022-10-22T17:37:35.356Z,50.19
2022-10-22T17:39:37.047Z,50.56
2022-10-22T17:41:38.907Z,50.43
2022-10-22T17:43:40.575Z,50.65
2022-10-22T17:45:43.015Z,50.36
2022-10-22T17:47:44.649Z,50.42
2022-10-22T17:49:46.631Z,50.48
2022-10-22T17:51:48.574Z,50.52
2022-10-22T17:53:57.966Z,50.73
2022-10-22T17:56:01.629Z,50.58
2022-10-22T17:58:03.254Z,50.46
2022-10-22T18:00:06.459Z,50.34
2022-10-22T18:02:16.072Z,50.67
2022-10-22T18:04:19.695Z,50.82
2022-10-22T18:06:22.057Z,50.81
2022-10-22T18:08:25.457Z,50.80
2022-10-22T18:10:27.059Z,50.97
2022-10-22T18:12:28.769Z,50.62
2022-10-22T18:14:30.306Z,50.69
2022-10-22T18:16:32.438Z,50.87
2022-10-22T18:18:35.834Z,51.04
2022-10-22T18:20:38.948Z,51.07
2022-10-22T18:22:42.178Z,50.93
2022-10-22T18:24:43.655Z,50.82
2022-10-22T18:26:45.286Z,50.80
2022-10-22T18:28:50.343Z,51.06
2022-10-22T18:30:54.745Z,51.08
2022-10-22T18:32:56.470Z,50.92
2022-10-22T18:34:58.273Z,51.12
2022-10-22T18:37:00.042Z,51.05
2022-10-22T18:39:03.098Z,51.24
2022-10-22T18:41:09.881Z,51.37
2022-10-22T18:43:11.710Z,51.51
2022-10-22T18:45:15.530Z,51.49
2022-10-22T18:47:17.204Z,51.50
2022-10-22T18:49:19.373Z,51.18
2022-10-22T18:51:22.019Z,51.30
2022-10-22T18:53:23.703Z,51.45
2022-10-22T18:55:25.297Z,51.64
2022-10-22T18:57:29.941Z,51.58
2022-10-22T18:59:31.928Z,51.47
2022-10-22T19:01:36.379Z,51.65
2022-10-22T19:03:38.019Z,51.80
2022-10-22T19:05:52.069Z,51.67
2022-10-22T19:07:53.695Z,52.10
2022-10-22T19:09:55.437Z,51.81
2022-10-22T19:11:57.446Z,52.06
2022-10-22T19:13:59.156Z,51.99
2022-10-22T19:16:06.005Z,51.99
2022-10-22T19:18:07.576Z,52.34
2022-10-22T19:20:09.841Z,52.27
2022-10-22T19:22:11.554Z,52.15
2022-10-22T19:24:16.105Z,52.15
2022-10-22T19:26:18.838Z,52.34
2022-10-22T19:28:20.372Z,52.33
2022-10-22T19:30:23.567Z,52.60
2022-10-22T19:32:27.570Z,52.49
2022-10-22T19:34:33.814Z,52.55
2022-10-22T19:36:36.858Z,52.68
2022-10-22T19:38:43.317Z,52.70
2022-10-22T19:40:44.991Z,52.64
2022-10-22T19:42:50.277Z,52.82
2022-10-22T19:44:52.058Z,52.47
2022-10-22T19:46:53.932Z,52.84
2022-10-22T19:48:59.566Z,52.81
2022-10-22T19:51:10.406Z,52.79
2022-10-22T19:53:14.278Z,52.78
2022-10-22T19:55:22.187Z,52.76
2022-10-22T19:57:23.887Z,52.88
2022-10-22T19:59:29.849Z,52.85
2022-10-22T20:01:33.689Z,52.90
2022-10-22T20:03:39.012Z,53.03
2022-10-22T20:05:42.783Z,52.95
2022-10-22T20:07:44.501Z,53.00
2022-10-22T20:09:49.054Z,52.94
2022-10-22T20:11:50.705Z,53.10
2022-10-22T20:13:52.774Z,53.09
2022-10-22T20:15:54.663Z,53.02
2022-10-22T20:17:56.214Z,53.08
2022-10-22T20:20:00.610Z,53.12
2022-10-22T20:22:02.447Z,53.14
2022-10-22T20:24:04.189Z,52.99
2022-10-22T20:26:05.965Z,53.26
2022-10-22T20:28:07.998Z,53.26
2022-10-22T20:30:10.464Z,53.21
2022-10-22T20:32:12.806Z,53.35
2022-10-22T20:34:16.957Z,53.37
2022-10-22T20:36:21.556Z,53.50
2022-10-22T20:38:23.228Z,53.49
2022-10-22T20:40:26.860Z,53.60
2022-10-22T20:42:30.736Z,53.66
2022-10-22T20:44:32.251Z,53.57
2022-10-22T20:46:34.394Z,53.65
2022-10-22T20:48:38.368Z,53.65
2022-10-22T20:50:40.007Z,53.70
2022-10-22T20:52:41.998Z,53.90
2022-10-22T20:54:45.782Z,53.86
2022-10-22T20:56:48.031Z,53.81
2022-10-22T20:58:53.861Z,53.85
2022-10-22T21:00:55.820Z,53.93
2022-10-22T21:02:57.349Z,53.95
2022-10-22T21:04:59.030Z,53.99
2022-10-22T21:07:03.582Z,54.09
2022-10-22T21:09:06.716Z,54.24
2022-10-22T21:11:08.328Z,54.17
2022-10-22T21:13:10.594Z,54.19
2022-10-22T21:15:15.719Z,54.21
2022-10-22T21:17:17.304Z,54.24
2022-10-22T21:19:19.817Z,54.18
2022-10-22T21:21:21.680Z,54.33
2022-10-22T21:23:23.293Z,54.24
2022-10-22T21:25:25.029Z,54.33
2022-10-22T21:27:26.673Z,54.38
2022-10-22T21:29:31.157Z,54.45
2022-10-22T21:31:32.851Z,54.43
2022-10-22T21:33:39.024Z,54.45
2022-10-22T21:35:40.853Z,54.34
2022-10-22T21:37:42.862Z,54.27
2022-10-22T21:39:44.498Z,54.43
2022-10-22T21:41:46.228Z,54.54
2022-10-22T21:43:49.822Z,54.55
2022-10-22T21:46:07.823Z,54.42
2022-10-22T21:48:11.517Z,54.52
2022-10-22T21:50:13.063Z,54.55
2022-10-22T21:52:17.012Z,54.59
2022-10-22T21:54:19.559Z,54.69
2022-10-22T21:56:28.873Z,54.75
2022-10-22T21:58:34.521Z,54.70
2022-10-22T22:00:36.677Z,54.70
2022-10-22T22:02:40.570Z,54.66
2022-10-22T22:04:42.577Z,54.76
2022-10-22T22:06:47.266Z,54.74
2022-10-22T22:08:51.611Z,54.85
2022-10-22T22:11:00.232Z,54.89
2022-10-22T22:13:04.728Z,54.79
2022-10-22T22:15:07.046Z,54.90
2022-10-22T22:17:10.546Z,54.91
2022-10-22T22:19:12.526Z,54.91
2022-10-22T22:21:17.910Z,54.94
2022-10-22T22:23:20.110Z,54.92
2022-10-22T22:25:25.301Z,54.81
2022-10-22T22:27:26.778Z,54.97
2022-10-22T22:29:28.770Z,55.07
2022-10-22T22:31:33.186Z,55.03
2022-10-22T22:33:34.699Z,54.98
2022-10-22T22:35:37.078Z,54.95
2022-10-22T22:37:38.691Z,54.90
2022-10-22T22:39:40.409Z,54.87
2022-10-22T22:41:43.545Z,54.85
2022-10-22T22:43:45.400Z,54.99
2022-10-22T22:45:47.211Z,55.05
2022-10-22T22:47:49.838Z,55.21
2022-10-22T22:49:51.412Z,55.08
2022-10-22T22:51:53.294Z,54.99
2022-10-22T22:53:57.703Z,55.12
2022-10-22T22:56:11.422Z,55.18
2022-10-22T22:58:15.977Z,55.23
2022-10-22T23:00:17.850Z,55.13
2022-10-22T23:02:26.896Z,55.20
2022-10-22T23:04:31.798Z,55.30
2022-10-22T23:06:37.306Z,55.27
2022-10-22T23:08:39.848Z,55.36
2022-10-22T23:10:41.561Z,55.32
2022-10-22T23:12:43.461Z,55.29
2022-10-22T23:14:45.587Z,55.22
2022-10-22T23:16:52.122Z,55.32
2022-10-22T23:18:55.137Z,55.25
2022-10-22T23:20:56.861Z,55.33
2022-10-22T23:23:01.611Z,55.35
2022-10-22T23:25:03.333Z,55.38
2022-10-22T23:27:05.204Z,55.34
2022-10-22T23:29:13.002Z,55.42
2022-10-22T23:31:17.027Z,55.46
2022-10-22T23:33:21.179Z,55.55
2022-10-22T23:35:22.866Z,55.52
2022-10-22T23:37:24.501Z,55.48
2022-10-22T23:39:29.338Z,55.47
2022-10-22T23:41:31.085Z,55.70
2022-10-22T23:43:38.689Z,55.69
2022-10-22T23:45:40.368Z,55.81
2022-10-22T23:47:42.459Z,55.72
2022-10-22T23:49:47.018Z,55.68
2022-10-22T23:51:48.878Z,55.56
2022-10-22T23:53:59.755Z,55.67
2022-10-22T23:56:11.080Z,55.52
2022-10-22T23:58:14.970Z,55.45
